Time;durP1;ratioP1;P1;durP2;ratioP2;P2;SDS_P1;SDS_P2;PMS_P1;PMS_P2;Temp;Humidity;BMP_temperature;BMP_pressure;BME280_temperature;BME280_humidity;BME280_pressure;Samples;Min_cycle;Max_cycle;Signal;HPM_P1;HPM_P2
2024/01/31 00:01:23;;;;;;;;;;;;;;;9.58;100.00;103316.75;5240278;28;20481;-77
2024/01/31 00:03:54;;;;;;;11.88;7.30;;;;;;;8.95;100.00;103311.41;5238190;28;19917;-76
2024/01/31 00:06:26;;;;;;;14.55;6.65;;;;;;;8.90;100.00;103311.59;5243859;28;20041;-76
2024/01/31 00:09:00;;;;;;;11.82;6.10;;;;;;;8.90;100.00;103308.09;5240160;28;20052;-77
2024/01/31 00:11:32;;;;;;;15.57;6.97;;;;;;;8.84;100.00;103311.81;5240396;28;20040;-76
2024/01/31 00:14:07;;;;;;;12.52;6.28;;;;;;;8.82;100.00;103304.94;5244961;28;20028;-73
2024/01/31 00:16:39;;;;;;;9.90;6.10;;;;;;;8.78;100.00;103304.19;5241846;28;20025;-76
2024/01/31 00:19:11;;;;;;;11.60;6.10;;;;;;;8.82;100.00;103316.25;5242909;28;20398;-77
2024/01/31 00:21:43;;;;;;;12.20;6.80;;;;;;;8.84;100.00;103321.44;5243298;28;20038;-77
2024/01/31 00:24:15;;;;;;;12.93;6.22;;;;;;;8.81;100.00;103324.16;5241032;28;20398;-77
2024/01/31 00:26:47;;;;;;;10.02;5.05;;;;;;;8.83;100.00;103335.41;5242009;28;20265;-76
2024/01/31 00:29:18;;;;;;;10.52;5.10;;;;;;;8.74;100.00;103321.75;5240540;28;20032;-76
2024/01/31 00:31:50;;;;;;;10.13;4.53;;;;;;;8.75;100.00;103333.06;5241091;28;20119;-77
2024/01/31 00:34:22;;;;;;;13.35;5.15;;;;;;;8.73;100.00;103342.75;5241853;28;20048;-77
2024/01/31 00:36:54;;;;;;;10.30;4.18;;;;;;;8.72;100.00;103341.88;5242907;28;20033;-77
2024/01/31 00:39:31;;;;;;;14.68;4.40;;;;;;;8.64;100.00;103336.09;5242055;28;20030;-74
2024/01/31 00:42:03;;;;;;;13.57;4.45;;;;;;;8.70;100.00;103348.06;5242104;28;20026;-77
2024/01/31 00:44:35;;;;;;;10.25;3.70;;;;;;;8.72;100.00;103348.88;5240409;28;20378;-77
2024/01/31 00:47:06;;;;;;;10.55;3.78;;;;;;;8.66;100.00;103344.72;5239532;28;20025;-77
2024/01/31 00:49:38;;;;;;;7.40;3.60;;;;;;;8.72;100.00;103351.50;5240178;28;20036;-77
2024/01/31 00:52:10;;;;;;;9.07;3.80;;;;;;;8.69;100.00;103362.91;5243105;28;20039;-77
2024/01/31 00:54:42;;;;;;;8.27;4.45;;;;;;;8.71;100.00;103349.78;5245583;28;20398;-77
2024/01/31 00:57:15;;;;;;;9.52;3.70;;;;;;;8.62;100.00;103339.66;5238668;28;20032;-77
2024/01/31 00:59:47;;;;;;;12.25;3.63;;;;;;;8.59;100.00;103329.31;5240328;28;20044;-77
2024/01/31 01:02:19;;;;;;;7.18;3.10;;;;;;;8.66;100.00;103355.16;5242446;28;20490;-76
2024/01/31 01:04:52;;;;;;;9.00;3.80;;;;;;;8.67;100.00;103356.03;5241508;28;20063;-77
2024/01/31 01:07:24;;;;;;;8.07;3.47;;;;;;;8.72;100.00;103360.19;5239195;28;20037;-75
2024/01/31 01:09:56;;;;;;;7.25;3.90;;;;;;;8.67;100.00;103361.25;5236808;28;20497;-77
2024/01/31 01:12:28;;;;;;;8.93;3.80;;;;;;;8.57;100.00;103354.66;5243731;28;20577;-77
2024/01/31 01:15:00;;;;;;;10.65;3.28;;;;;;;8.61;100.00;103361.50;5236783;28;20041;-74
2024/01/31 01:17:32;;;;;;;7.57;2.70;;;;;;;8.58;100.00;103365.06;5242854;28;20064;-77
2024/01/31 01:20:08;;;;;;;8.20;3.13;;;;;;;8.58;100.00;103364.22;5241614;28;20029;-73
2024/01/31 01:22:42;;;;;;;7.72;2.88;;;;;;;8.57;100.00;103363.34;5240613;28;20041;-73
2024/01/31 01:25:14;;;;;;;8.23;2.85;;;;;;;8.60;100.00;103354.53;5234861;28;20039;-77
2024/01/31 01:27:50;;;;;;;9.80;2.90;;;;;;;8.62;100.00;103361.41;5236065;28;20441;-76
2024/01/31 01:30:22;;;;;;;6.82;2.67;;;;;;;8.63;100.00;103362.28;5240845;28;20486;-77
2024/01/31 01:32:54;;;;;;;10.60;2.92;;;;;;;8.57;100.00;103352.91;5236261;28;20033;-77
2024/01/31 01:35:26;;;;;;;10.20;3.05;;;;;;;8.61;100.00;103353.66;5234844;28;20723;-74
2024/01/31 01:37:58;;;;;;;9.45;2.83;;;;;;;8.67;100.00;103366.47;5238885;28;20041;-76
2024/01/31 01:40:30;;;;;;;8.27;2.92;;;;;;;8.63;100.00;103363.13;5236314;28;20036;-76
2024/01/31 01:43:02;;;;;;;9.00;2.78;;;;;;;8.60;100.00;103358.03;5240339;28;20042;-76
2024/01/31 01:45:34;;;;;;;11.40;3.22;;;;;;;8.53;100.00;103352.16;5237426;28;20406;-76
2024/01/31 01:48:06;;;;;;;8.07;3.03;;;;;;;8.56;100.00;103366.88;5238233;28;20064;-76
2024/01/31 01:50:38;;;;;;;7.93;2.80;;;;;;;8.60;100.00;103368.47;5238302;28;20104;-77
2024/01/31 01:53:10;;;;;;;14.03;4.47;;;;;;;8.59;100.00;103360.69;5240659;28;20032;-75
2024/01/31 01:55:43;;;;;;;8.93;2.80;;;;;;;8.62;100.00;103363.19;5235452;28;20041;-76
2024/01/31 01:58:15;;;;;;;9.30;3.00;;;;;;;8.53;100.00;103362.63;5237336;28;20272;-77
2024/01/31 02:00:48;;;;;;;8.85;3.00;;;;;;;8.57;100.00;103365.13;5238590;28;20029;-74
2024/01/31 02:03:20;;;;;;;5.53;2.57;;;;;;;8.56;100.00;103360.78;5232126;28;20064;-77
2024/01/31 02:05:52;;;;;;;9.20;2.75;;;;;;;8.55;100.00;103365.16;5235710;28;20041;-76
2024/01/31 02:08:26;;;;;;;6.53;3.05;;;;;;;8.55;100.00;103361.69;5239645;28;20048;-77
2024/01/31 02:10:58;;;;;;;7.65;2.97;;;;;;;8.49;100.00;103361.03;5240405;28;20060;-77
2024/01/31 02:13:30;;;;;;;10.13;3.10;;;;;;;8.44;100.00;103351.63;5234872;28;20025;-77
2024/01/31 02:16:02;;;;;;;7.50;2.97;;;;;;;8.49;100.00;103354.94;5235895;28;20349;-74
2024/01/31 02:18:34;;;;;;;10.15;3.08;;;;;;;8.43;100.00;103360.38;5232365;28;20071;-77
2024/01/31 02:21:06;;;;;;;7.78;2.90;;;;;;;8.46;100.00;103361.13;5239119;28;20048;-74
2024/01/31 02:23:37;;;;;;;6.13;2.85;;;;;;;8.44;100.00;103357.69;5241370;28;20036;-76
2024/01/31 02:26:09;;;;;;;9.50;3.50;;;;;;;8.45;100.00;103351.59;5235761;28;20025;-75
2024/01/31 02:28:41;;;;;;;11.88;3.05;;;;;;;8.47;100.00;103354.13;5235297;28;20032;-75
2024/01/31 02:31:13;;;;;;;10.02;3.63;;;;;;;8.44;100.00;103352.47;5235826;28;20026;-76
2024/01/31 02:33:45;;;;;;;8.27;3.42;;;;;;;8.45;100.00;103351.59;5238073;28;20044;-77
2024/01/31 02:36:17;;;;;;;8.55;3.72;;;;;;;8.46;100.00;103350.69;5234845;28;20494;-75
2024/01/31 02:38:49;;;;;;;6.03;3.80;;;;;;;8.46;100.00;103358.50;5232693;28;20049;-76
2024/01/31 02:41:21;;;;;;;11.40;4.60;;;;;;;8.44;100.00;103349.84;5234406;28;20044;-75
2024/01/31 02:43:53;;;;;;;11.65;3.97;;;;;;;8.45;100.00;103362.03;5236533;28;20040;-76
2024/01/31 02:46:25;;;;;;;10.70;4.22;;;;;;;8.43;100.00;103356.00;5237385;28;20037;-76
2024/01/31 02:49:00;;;;;;;9.93;4.20;;;;;;;8.37;100.00;103348.41;5238371;28;20060;-76
2024/01/31 02:51:31;;;;;;;11.15;4.88;;;;;;;8.32;100.00;103337.22;5237754;28;20029;-77
2024/01/31 02:54:03;;;;;;;9.77;4.15;;;;;;;8.40;100.00;103347.41;5234853;28;20033;-77
2024/01/31 02:56:35;;;;;;;13.10;4.95;;;;;;;8.42;100.00;103351.69;5234068;28;20026;-76
2024/01/31 02:59:07;;;;;;;10.63;4.32;;;;;;;8.45;100.00;103342.91;5239108;28;20139;-77
2024/01/31 03:01:45;;;;;;;10.02;3.83;;;;;;;8.51;100.00;103325.22;5239803;28;20040;-76
2024/01/31 03:04:18;;;;;;;8.45;4.40;;;;;;;8.40;100.00;103319.53;5240405;28;20467;-76
2024/01/31 03:06:50;;;;;;;11.60;4.10;;;;;;;8.48;100.00;103337.53;5240278;28;20518;-76
2024/01/31 03:09:22;;;;;;;8.52;5.07;;;;;;;8.43;100.00;103335.09;5236847;28;20052;-75
2024/01/31 03:11:54;;;;;;;10.60;4.57;;;;;;;8.42;100.00;103327.34;5232270;28;20061;-76
2024/01/31 03:14:25;;;;;;;9.40;4.88;;;;;;;8.42;100.00;103322.09;5242697;28;20494;-74
2024/01/31 03:16:59;;;;;;;10.40;4.80;;;;;;;8.48;100.00;103321.88;5232856;28;20037;-74
2024/01/31 03:19:32;;;;;;;10.50;5.60;;;;;;;8.47;100.00;103328.84;5243147;28;20040;-76
2024/01/31 03:22:05;;;;;;;;;;;;;;;9.12;100.00;103326.44;5233038;28;20394;-76
2024/01/31 03:24:38;;;;;;;13.88;5.28;;;;;;;8.52;100.00;103324.34;5239309;28;20255;-76
2024/01/31 03:27:10;;;;;;;11.13;4.55;;;;;;;8.43;100.00;103305.53;5239486;28;20043;-76
2024/01/31 03:29:42;;;;;;;13.20;5.65;;;;;;;8.40;100.00;103316.06;5240564;28;20025;-76
2024/01/31 03:32:14;;;;;;;12.85;5.63;;;;;;;8.41;100.00;103320.38;5242520;28;20043;-76
2024/01/31 03:34:45;;;;;;;10.75;5.72;;;;;;;8.33;100.00;103298.88;5243226;28;20052;-77
2024/01/31 03:37:17;;;;;;;10.75;5.65;;;;;;;8.40;100.00;103319.53;5242296;28;20530;-76
2024/01/31 03:39:49;;;;;;;11.30;6.15;;;;;;;8.35;100.00;103311.00;5244211;28;20408;-77
2024/01/31 03:42:21;;;;;;;15.10;6.63;;;;;;;8.34;100.00;103309.28;5242430;28;20033;-73
2024/01/31 03:44:53;;;;;;;15.82;7.32;;;;;;;8.31;100.00;103304.16;5245217;28;20037;-77
2024/01/31 03:47:25;;;;;;;15.45;7.10;;;;;;;8.23;100.00;103298.38;5243000;28;20029;-76
2024/01/31 03:49:57;;;;;;;16.45;7.18;;;;;;;8.26;100.00;103303.50;5240783;28;20041;-77
2024/01/31 03:52:30;;;;;;;11.25;7.45;;;;;;;8.22;100.00;103307.09;5242807;28;20036;-74
2024/01/31 03:55:02;;;;;;;12.60;7.60;;;;;;;8.27;100.00;103306.03;5245097;28;20479;-77
2024/01/31 03:57:34;;;;;;;13.98;7.32;;;;;;;8.22;100.00;103297.53;5237206;28;20040;-77
2024/01/31 04:00:08;;;;;;;13.35;7.57;;;;;;;8.22;100.00;103299.25;5234956;28;20029;-73
2024/01/31 04:02:40;;;;;;;14.57;7.40;;;;;;;8.32;100.00;103297.19;5241536;28;20029;-73
2024/01/31 04:05:12;;;;;;;15.63;7.65;;;;;;;8.31;100.00;103303.31;5243951;28;20466;-77
2024/01/31 04:07:44;;;;;;;14.75;7.80;;;;;;;8.32;100.00;103310.25;5242478;28;20033;-73
2024/01/31 04:10:17;;;;;;;13.52;7.35;;;;;;;8.31;100.00;103301.56;5242911;28;20036;-77
2024/01/31 04:12:49;;;;;;;14.38;7.75;;;;;;;8.19;100.00;103279.34;5243688;28;20040;-77
2024/01/31 04:15:20;;;;;;;14.10;7.88;;;;;;;8.20;100.00;103290.66;5243126;28;20033;-74
2024/01/31 04:17:52;;;;;;;14.27;8.60;;;;;;;8.15;100.00;103282.97;5244473;28;20447;-77
2024/01/31 04:20:24;;;;;;;16.77;8.40;;;;;;;8.16;100.00;103291.66;5243463;28;20374;-74
2024/01/31 04:22:56;;;;;;;14.98;8.57;;;;;;;8.20;100.00;103295.88;5240939;28;20026;-76
2024/01/31 04:25:28;;;;;;;14.27;7.82;;;;;;;8.19;100.00;103299.41;5245654;28;20036;-75
2024/01/31 04:28:00;;;;;;;13.95;8.75;;;;;;;8.22;100.00;103302.75;5249287;28;20053;-76
2024/01/31 04:30:32;;;;;;;12.60;7.85;;;;;;;8.19;100.00;103300.25;5242830;28;20526;-77
2024/01/31 04:33:04;;;;;;;14.65;8.02;;;;;;;8.14;100.00;103296.91;5245427;28;20048;-76
2024/01/31 04:35:36;;;;;;;13.98;8.05;;;;;;;8.13;100.00;103299.59;5243755;28;20510;-77
2024/01/31 04:38:08;;;;;;;16.05;9.30;;;;;;;8.14;100.00;103296.91;5240309;28;20036;-74
2024/01/31 04:40:40;;;;;;;15.18;9.13;;;;;;;8.15;100.00;103308.25;5238747;28;20082;-73
2024/01/31 04:43:16;;;;;;;17.73;9.38;;;;;;;8.19;100.00;103300.25;5241080;28;20394;-77
2024/01/31 04:45:48;;;;;;;16.38;9.32;;;;;;;8.14;100.00;103302.16;5239398;28;20033;-76
2024/01/31 04:48:21;;;;;;;13.98;8.80;;;;;;;8.10;100.00;103289.25;5240868;28;20043;-76
2024/01/31 04:50:52;;;;;;;16.13;9.65;;;;;;;8.11;100.00;103301.44;5240294;28;20029;-77
2024/01/31 04:53:24;;;;;;;14.48;9.68;;;;;;;8.07;100.00;103294.59;5240009;28;20020;-76
2024/01/31 04:55:56;;;;;;;14.52;8.65;;;;;;;8.04;100.00;103295.56;5238416;28;20339;-77
2024/01/31 04:58:28;;;;;;;15.60;9.75;;;;;;;8.01;100.00;103287.81;5238494;28;20033;-77
2024/01/31 05:01:01;;;;;;;17.80;9.18;;;;;;;8.00;100.00;103284.38;5238488;28;20041;-77
2024/01/31 05:03:33;;;;;;;14.95;9.57;;;;;;;8.09;100.00;103298.00;5243136;28;20390;-77
2024/01/31 05:06:05;;;;;;;16.92;10.50;;;;;;;8.07;100.00;103289.34;5240750;28;20052;-76
2024/01/31 05:08:37;;;;;;;18.45;10.05;;;;;;;8.04;100.00;103283.34;5242592;28;20033;-76
2024/01/31 05:11:12;;;;;;;12.88;9.27;;;;;;;8.12;100.00;103293.53;5240806;28;20025;-75
2024/01/31 05:13:44;;;;;;;16.30;9.23;;;;;;;8.07;100.00;103286.75;5243344;28;20036;-74
2024/01/31 05:16:16;;;;;;;16.65;10.50;;;;;;;8.05;100.00;103297.25;5239617;28;20390;-76
2024/01/31 05:18:48;;;;;;;16.55;9.77;;;;;;;8.03;100.00;103286.00;5238136;28;20072;-74
2024/01/31 05:21:20;;;;;;;15.75;9.93;;;;;;;8.07;100.00;103286.75;5237465;28;20043;-77
2024/01/31 05:23:52;;;;;;;13.63;10.20;;;;;;;8.01;100.00;103280.00;5238979;28;20048;-77
2024/01/31 05:26:24;;;;;;;18.40;10.57;;;;;;;8.02;100.00;103277.31;5242316;28;20040;-76
2024/01/31 05:28:55;;;;;;;20.52;10.90;;;;;;;8.04;100.00;103285.97;5240613;28;20051;-77
2024/01/31 05:31:27;;;;;;;16.73;11.05;;;;;;;8.00;100.00;103288.75;5238282;28;20045;-76
2024/01/31 05:33:59;;;;;;;16.55;11.02;;;;;;;7.95;100.00;103272.38;5239990;28;20035;-77
2024/01/31 05:36:32;;;;;;;16.05;11.32;;;;;;;8.06;100.00;103283.28;5238617;28;20034;-74
2024/01/31 05:39:04;;;;;;;15.38;10.38;;;;;;;8.05;100.00;103289.44;5239402;28;20033;-77
2024/01/31 05:41:41;;;;;;;16.80;10.10;;;;;;;8.14;100.00;103285.63;5239451;28;20030;-75
2024/01/31 05:44:13;;;;;;;18.02;11.07;;;;;;;8.05;100.00;103294.66;5241265;28;20029;-77
2024/01/31 05:46:45;;;;;;;16.50;10.73;;;;;;;8.03;100.00;103294.72;5238068;28;20048;-74
2024/01/31 05:49:17;;;;;;;17.70;11.75;;;;;;;8.02;100.00;103290.38;5242338;28;20118;-78
2024/01/31 05:51:51;;;;;;;16.10;10.50;;;;;;;7.96;100.00;103280.16;5237567;28;20052;-74
2024/01/31 05:54:22;;;;;;;18.00;11.32;;;;;;;7.99;100.00;103282.69;5244285;28;20109;-74
2024/01/31 05:56:54;;;;;;;17.88;11.70;;;;;;;8.01;100.00;103291.28;5237273;28;20470;-74
2024/01/31 05:59:26;;;;;;;17.88;11.68;;;;;;;8.01;100.00;103291.28;5239055;28;20036;-74
2024/01/31 06:01:59;;;;;;;16.83;11.70;;;;;;;7.93;100.00;103288.09;5235452;28;20037;-78
2024/01/31 06:04:31;;;;;;;21.65;12.18;;;;;;;8.06;100.00;103293.72;5240543;28;20036;-75
2024/01/31 06:07:03;;;;;;;17.83;11.93;;;;;;;8.00;100.00;103293.97;5237378;28;20410;-74
2024/01/31 06:09:35;;;;;;;15.05;11.45;;;;;;;7.98;100.00;103291.38;5235641;28;20029;-75
2024/01/31 06:12:07;;;;;;;15.50;11.90;;;;;;;7.97;100.00;103294.06;5240645;28;20036;-79
2024/01/31 06:14:39;;;;;;;17.35;11.98;;;;;;;8.03;100.00;103288.63;5242575;28;20383;-75
2024/01/31 06:17:10;;;;;;;19.48;13.18;;;;;;;7.95;100.00;103278.44;5231951;28;20056;-76
2024/01/31 06:19:43;;;;;;;16.20;11.52;;;;;;;8.05;100.00;103284.19;5232486;28;20039;-74
2024/01/31 06:22:15;;;;;;;17.58;12.70;;;;;;;7.95;100.00;103274.97;5235176;28;20303;-75
2024/01/31 06:24:47;;;;;;;19.92;12.15;;;;;;;7.92;100.00;103278.56;5240613;28;20064;-76
2024/01/31 06:27:19;;;;;;;16.33;12.27;;;;;;;7.98;100.00;103280.09;5238762;28;20060;-75
2024/01/31 06:29:51;;;;;;;19.48;13.55;;;;;;;7.99;100.00;103272.22;5239407;28;20043;-79
2024/01/31 06:32:30;;;;;;;19.13;12.10;;;;;;;7.99;100.00;103274.84;5238533;28;20029;-74
2024/01/31 06:35:03;;;;;;;19.55;12.65;;;;;;;8.01;100.00;103265.19;5242294;28;20028;-74
2024/01/31 06:37:35;;;;;;;19.13;13.82;;;;;;;8.03;100.00;103262.50;5243990;28;20033;-74
2024/01/31 06:40:10;;;;;;;17.55;13.45;;;;;;;7.92;100.00;103246.41;5237696;28;20389;-74
2024/01/31 06:42:42;;;;;;;19.60;13.65;;;;;;;7.95;100.00;103246.25;5237129;28;20049;-76
2024/01/31 06:45:14;;;;;;;17.65;12.85;;;;;;;7.89;100.00;103238.69;5237867;28;20029;-75
2024/01/31 06:47:46;;;;;;;18.30;13.85;;;;;;;7.90;100.00;103229.94;5236310;28;20124;-79
2024/01/31 06:50:19;;;;;;;15.55;13.00;;;;;;;7.91;100.00;103235.09;5239311;28;20028;-74
2024/01/31 06:52:51;;;;;;;20.35;13.13;;;;;;;7.88;100.00;103231.72;5235810;28;20109;-75
2024/01/31 06:55:22;;;;;;;21.88;14.73;;;;;;;7.90;100.00;103238.59;5236898;28;20037;-74
2024/01/31 06:57:54;;;;;;;18.52;14.80;;;;;;;7.85;100.00;103232.72;5237360;28;20407;-75
2024/01/31 07:00:26;;;;;;;25.35;16.85;;;;;;;7.94;100.00;103239.34;5234764;28;20037;-78
2024/01/31 07:02:58;;;;;;;20.60;14.90;;;;;;;7.93;100.00;103241.13;5238834;28;20104;-74
2024/01/31 07:05:30;;;;;;;21.27;15.55;;;;;;;7.87;100.00;103245.69;5244311;28;20394;-77
2024/01/31 07:08:02;;;;;;;21.95;16.05;;;;;;;7.94;100.00;103274.13;5244988;28;20044;-74
2024/01/31 07:10:34;;;;;;;21.73;15.27;;;;;;;7.92;100.00;103275.97;5244374;28;20041;-74
2024/01/31 07:13:06;;;;;;;17.25;15.35;;;;;;;7.93;100.00;103282.88;5240770;28;20383;-74
2024/01/31 07:15:37;;;;;;;22.63;15.45;;;;;;;7.94;100.00;103304.59;5242970;28;20052;-75
2024/01/31 07:18:09;;;;;;;21.67;15.55;;;;;;;7.93;100.00;103311.59;5246277;28;20045;-74
2024/01/31 07:20:41;;;;;;;21.35;14.90;;;;;;;7.89;100.00;103302.16;5241121;28;20036;-77
2024/01/31 07:23:13;;;;;;;23.13;15.00;;;;;;;7.86;100.00;103312.69;5243123;28;20123;-77
2024/01/31 07:25:45;;;;;;;26.02;16.83;;;;;;;7.93;100.00;103335.09;5242397;28;20028;-76
2024/01/31 07:28:17;;;;;;;19.77;15.65;;;;;;;7.96;100.00;103340.22;5241287;28;20029;-80
2024/01/31 07:30:49;;;;;;;23.27;15.13;;;;;;;7.95;100.00;103341.09;5243909;28;20032;-74
2024/01/31 07:33:21;;;;;;;22.40;15.60;;;;;;;7.95;100.00;103348.91;5242560;28;20034;-76
2024/01/31 07:35:53;;;;;;;20.60;15.88;;;;;;;7.95;100.00;103346.31;5244493;28;20033;-74
2024/01/31 07:38:25;;;;;;;23.40;16.30;;;;;;;7.94;100.00;103334.16;5234500;28;20039;-79
2024/01/31 07:40:57;;;;;;;23.20;15.77;;;;;;;7.94;100.00;103339.38;5234456;28;20497;-74
2024/01/31 07:43:28;;;;;;;21.27;15.55;;;;;;;7.95;100.00;103342.84;5236609;28;20029;-76
2024/01/31 07:46:00;;;;;;;24.02;16.35;;;;;;;8.01;100.00;103346.13;5239814;28;20112;-75
2024/01/31 07:48:32;;;;;;;24.02;16.90;;;;;;;8.03;100.00;103344.31;5240076;28;20037;-79
2024/01/31 07:51:05;;;;;;;23.25;16.25;;;;;;;8.05;100.00;103342.50;5241890;28;20378;-77
2024/01/31 07:53:38;;;;;;;19.60;15.43;;;;;;;8.10;100.00;103350.16;5239471;28;20033;-76
2024/01/31 07:56:10;;;;;;;;;;;;;;;8.71;100.00;103345.41;5240224;28;20565;-74
2024/01/31 07:58:42;;;;;;;19.73;15.15;;;;;;;8.12;100.00;103343.13;5237756;28;19944;-76
2024/01/31 08:01:14;;;;;;;23.98;15.52;;;;;;;8.09;100.00;103339.78;5240293;28;20035;-74
2024/01/31 08:03:46;;;;;;;23.42;15.88;;;;;;;8.10;100.00;103336.25;5241122;28;20033;-77
2024/01/31 08:06:18;;;;;;;25.48;16.58;;;;;;;7.99;100.00;103321.84;5237139;28;20045;-74
2024/01/31 08:08:51;;;;;;;23.73;16.83;;;;;;;8.06;100.00;103330.28;5238911;28;20037;-75
2024/01/31 08:11:23;;;;;;;24.83;17.25;;;;;;;8.05;100.00;103333.81;5241227;28;20383;-76
2024/01/31 08:13:55;;;;;;;21.75;17.08;;;;;;;8.03;100.00;103323.44;5243576;28;20029;-76
2024/01/31 08:16:27;;;;;;;25.63;17.58;;;;;;;8.04;100.00;103326.88;5240779;28;20033;-74
2024/01/31 08:18:59;;;;;;;22.80;17.10;;;;;;;8.04;100.00;103321.66;5241158;28;20037;-74
2024/01/31 08:21:34;;;;;;;25.98;17.65;;;;;;;8.09;100.00;103339.78;5240565;28;20048;-79
2024/01/31 08:24:06;;;;;;;27.55;17.90;;;;;;;7.97;100.00;103328.00;5229545;28;20029;-77
2024/01/31 08:26:37;;;;;;;23.45;17.65;;;;;;;7.89;100.00;103323.03;5240154;28;20035;-78
2024/01/31 08:29:10;;;;;;;27.30;17.58;;;;;;;7.94;100.00;103333.31;5239792;28;20032;-74
2024/01/31 08:31:41;;;;;;;28.17;18.65;;;;;;;7.96;100.00;103332.38;5236914;28;20032;-75
2024/01/31 08:34:14;;;;;;;24.92;17.05;;;;;;;7.96;100.00;103319.31;5232495;28;20049;-74
2024/01/31 08:36:46;;;;;;;26.47;18.27;;;;;;;7.93;100.00;103302.91;5237287;28;20069;-74
2024/01/31 08:39:18;;;;;;;25.35;18.05;;;;;;;7.95;100.00;103303.69;5234257;28;20033;-77
2024/01/31 08:41:50;;;;;;;31.67;19.15;;;;;;;8.04;100.00;103313.84;5238101;28;20381;-74
2024/01/31 08:44:22;;;;;;;30.55;19.02;;;;;;;8.08;100.00;103307.59;5240685;28;20033;-78
2024/01/31 08:46:54;;;;;;;27.45;18.58;;;;;;;8.04;100.00;103304.25;5233365;28;20363;-74
2024/01/31 08:49:26;;;;;;;32.92;20.20;;;;;;;8.01;100.00;103295.66;5239243;28;20108;-75
2024/01/31 08:51:57;;;;;;;29.27;18.77;;;;;;;8.03;100.00;103297.31;5240815;28;20037;-79
2024/01/31 08:54:30;;;;;;;26.98;19.25;;;;;;;8.12;100.00;103305.75;5239816;28;20025;-74
2024/01/31 08:57:04;;;;;;;27.38;18.65;;;;;;;8.14;100.00;103296.91;5234826;28;20184;-75
2024/01/31 08:59:35;;;;;;;28.20;18.70;;;;;;;8.11;100.00;103285.75;5232920;28;20036;-79
2024/01/31 09:02:07;;;;;;;28.70;20.17;;;;;;;8.21;100.00;103287.97;5237844;28;20257;-75
2024/01/31 09:04:39;;;;;;;30.30;19.65;;;;;;;8.20;100.00;103283.66;5237068;28;20073;-77
2024/01/31 09:07:11;;;;;;;29.63;19.70;;;;;;;8.20;100.00;103282.81;5234780;28;20072;-78
2024/01/31 09:09:43;;;;;;;29.77;19.83;;;;;;;8.22;100.00;103279.25;5235008;28;20114;-74
2024/01/31 09:12:15;;;;;;;35.35;21.98;;;;;;;8.17;100.00;103270.72;5239238;28;20029;-74
2024/01/31 09:14:47;;;;;;;28.30;19.40;;;;;;;8.22;100.00;103275.75;5238184;28;20033;-74
2024/01/31 09:17:19;;;;;;;31.00;21.92;;;;;;;8.28;100.00;103272.94;5237245;28;20033;-75
2024/01/31 09:19:51;;;;;;;31.05;21.92;;;;;;;8.25;100.00;103259.97;5240999;28;20039;-74
2024/01/31 09:22:24;;;;;;;33.50;21.60;;;;;;;8.20;100.00;103241.88;5240551;28;20049;-74
2024/01/31 09:24:56;;;;;;;34.47;22.05;;;;;;;8.32;100.00;103250.19;5239462;28;20045;-77
2024/01/31 09:27:28;;;;;;;31.70;22.08;;;;;;;8.35;100.00;103257.91;5236586;28;20033;-75
2024/01/31 09:30:00;;;;;;;32.00;22.48;;;;;;;8.37;100.00;103240.41;5237453;28;20505;-74
2024/01/31 09:32:31;;;;;;;35.22;23.20;;;;;;;8.41;100.00;103247.25;5236388;28;20033;-76
2024/01/31 09:35:04;;;;;;;34.80;22.75;;;;;;;8.44;100.00;103241.91;5239622;28;20036;-74
2024/01/31 09:37:36;;;;;;;31.02;23.10;;;;;;;8.40;100.00;103228.09;5241013;28;20029;-74
2024/01/31 09:40:08;;;;;;;35.15;23.50;;;;;;;8.46;100.00;103242.72;5237937;28;20041;-79
2024/01/31 09:42:40;;;;;;;29.50;22.57;;;;;;;8.50;100.00;103234.69;5242457;28;20026;-76
2024/01/31 09:45:14;;;;;;;33.50;22.98;;;;;;;8.61;100.00;103236.06;5237259;28;20295;-75
2024/01/31 09:47:47;;;;;;;35.95;24.35;;;;;;;8.54;100.00;103225.00;5236026;28;20028;-80
2024/01/31 09:50:19;;;;;;;29.90;22.85;;;;;;;8.58;100.00;103221.34;5240774;28;20029;-77
2024/01/31 09:52:53;;;;;;;31.80;22.30;;;;;;;8.55;100.00;103221.47;5244750;28;20032;-75
2024/01/31 09:55:27;;;;;;;31.30;22.05;;;;;;;8.68;100.00;103212.25;5239794;28;20041;-76
2024/01/31 09:58:00;;;;;;;30.20;22.60;;;;;;;8.69;100.00;103202.63;5242236;28;20040;-75
2024/01/31 10:00:32;;;;;;;32.58;22.17;;;;;;;8.63;100.00;103200.25;5237234;28;20018;-75
2024/01/31 10:03:05;;;;;;;26.75;21.38;;;;;;;8.76;100.00;103223.25;5241678;28;20043;-74
2024/01/31 10:05:37;;;;;;;27.27;20.58;;;;;;;8.74;100.00;103227.66;5239602;28;20041;-75
2024/01/31 10:08:09;;;;;;;25.73;20.00;;;;;;;8.78;100.00;103225.78;5239066;28;20854;-74
2024/01/31 10:10:41;;;;;;;25.02;18.95;;;;;;;8.81;100.00;103223.06;5245554;28;20033;-75
2024/01/31 10:13:13;;;;;;;23.10;18.38;;;;;;;8.87;100.00;103237.66;5245193;28;20382;-74
2024/01/31 10:15:45;;;;;;;23.55;18.63;;;;;;;8.91;100.00;103226.19;5242132;28;20098;-77
2024/01/31 10:18:18;;;;;;;24.73;18.02;;;;;;;8.92;100.00;103239.19;5238485;28;20037;-74
2024/01/31 10:20:50;;;;;;;23.07;18.40;;;;;;;9.04;100.00;103245.69;5239296;28;20036;-80
2024/01/31 10:23:23;;;;;;;20.75;15.93;;;;;;;8.87;100.00;103230.69;5239204;28;20303;-76
2024/01/31 10:25:55;;;;;;;19.38;15.65;;;;;;;8.91;100.00;103242.72;5240108;28;20498;-76
2024/01/31 10:28:28;;;;;;;24.45;16.02;;;;;;;9.00;100.00;103250.19;5240225;28;20039;-75
2024/01/31 10:31:00;;;;;;;;;;;;;;;9.56;100.00;103261.03;5240370;28;20041;-74
2024/01/31 10:33:33;;;;;;;19.50;15.70;;;;;;;8.93;100.00;103237.41;5241402;28;19962;-75
2024/01/31 10:36:07;;;;;;;17.92;14.80;;;;;;;9.06;100.00;103256.94;5238252;28;20033;-75
2024/01/31 10:38:39;;;;;;;17.83;14.75;;;;;;;9.07;100.00;103255.19;5236351;28;20040;-75
2024/01/31 10:41:15;;;;;;;20.45;14.88;;;;;;;9.02;100.00;103243.13;5241349;28;20380;-75
2024/01/31 10:43:52;;;;;;;17.08;12.90;;;;;;;8.98;100.00;103235.47;5231494;28;20042;-80
2024/01/31 10:46:24;;;;;;;19.25;13.70;;;;;;;8.94;100.00;103236.50;5243963;28;20048;-74
2024/01/31 10:48:56;;;;;;;17.23;12.75;;;;;;;9.04;100.00;103252.69;5241824;28;20033;-75
2024/01/31 10:51:30;;;;;;;15.57;11.98;;;;;;;9.08;100.00;103246.41;5243962;28;20528;-77
2024/01/31 10:54:04;;;;;;;14.55;12.77;;;;;;;9.05;100.00;103241.28;5240188;28;20033;-74
2024/01/31 10:56:37;;;;;;;14.75;11.95;;;;;;;9.03;100.00;103244.00;5240255;28;20026;-75
2024/01/31 10:59:11;;;;;;;16.20;12.85;;;;;;;9.10;100.00;103244.59;5244470;28;20047;-75
2024/01/31 11:01:55;;;;;;;14.48;12.00;;;;;;;9.22;100.00;103236.25;5243185;28;20047;-79
2024/01/31 11:04:27;;;;;;;14.57;11.65;;;;;;;9.05;100.00;103243.91;5243703;28;20041;-79
2024/01/31 11:07:00;;;;;;;15.30;11.23;;;;;;;8.93;100.00;103217.34;5249035;28;20061;-75
2024/01/31 11:09:32;;;;;;;13.52;12.20;;;;;;;9.11;100.00;103238.44;5245298;28;20041;-77
2024/01/31 11:12:06;;;;;;;15.45;12.07;;;;;;;9.02;100.00;103230.06;5239712;28;20026;-75
2024/01/31 11:14:40;;;;;;;15.18;12.10;;;;;;;9.07;100.00;103224.66;5240689;28;20026;-75
2024/01/31 11:17:19;;;;;;;18.08;12.88;;;;;;;9.15;100.00;103219.09;5245843;28;20036;-75
2024/01/31 11:19:59;;;;;;;14.63;13.13;;;;;;;8.97;100.00;103194.53;5235923;28;20056;-80
2024/01/31 11:22:31;;;;;;;16.77;13.07;;;;;;;9.01;100.00;103196.97;5238400;28;20482;-78
2024/01/31 11:25:07;;;;;;;17.50;13.57;;;;;;;9.05;100.00;103189.84;5242217;28;20029;-77
2024/01/31 11:27:39;;;;;;;15.27;13.65;;;;;;;9.05;100.00;103196.84;5240207;28;20483;-76
2024/01/31 11:30:12;;;;;;;15.63;13.52;;;;;;;9.05;100.00;103182.00;5242231;28;20032;-75
2024/01/31 11:32:44;;;;;;;17.27;13.75;;;;;;;9.08;100.00;103176.66;5240922;28;20369;-76
2024/01/31 11:35:16;;;;;;;16.10;13.32;;;;;;;9.02;100.00;103164.69;5243543;28;20033;-75
2024/01/31 11:37:48;;;;;;;15.55;12.43;;;;;;;9.11;100.00;103168.69;5244426;28;20037;-79